• Join FlightAware (Why Join?)
  • Login
  • US Flag 
10:00AM EST


 

Airport Tracker/Info


-or-


 

Live Flight TrackerFlight Track Log ✈ SWA208 ✈ 29-Apr-2013 ✈ KSNA - KSFO

Flight Track Log - Related Links

Times and Time Zones

All times are in EDT time to prevent confusion due to time zone crossing. See the SWA208 flight status page for this flight to view local times or setup timezone preferences in your user account.

Time Position Orientation Groundspeed Altitude Reporting Facility
EDT Latitude Longitude Course Direction KTS MPH feet Rate Location/Type
11:02PM 33.6539 -117.8803 198° South 131 151 1,600  Level Los Angeles Center
11:03PM 33.6172 -117.8950 198° South 137 158 3,000 1,920 Climbing Los Angeles Center
11:04PM 33.5719 -117.8994 185° South 154 177 5,600 3,180 Climbing Los Angeles Center
11:05PM 33.4964 -117.9525 210° Southwest 252 290 9,600 3,060 Climbing Los Angeles Center
11:06PM 33.4508 -118.0328 236° Southwest 307 353 12,000 2,580 Climbing Los Angeles Center
11:07PM 33.4267 -118.1456 256° West 339 390 14,900 2,400 Climbing Los Angeles Center
11:08PM 33.4025 -118.2739 257° West 379 436 17,000 2,400 Climbing Los Angeles Center
11:09PM 33.3864 -118.4053 262° West 398 458 19,900 2,820 Climbing Los Angeles Center
11:10PM 33.4553 -118.5144 307° West 415 478 22,800 2,700 Climbing Los Angeles Center
11:11PM 33.5419 -118.6175 315° West 431 496 25,500 2,520 Climbing Los Angeles Center
11:12PM 33.6328 -118.7253 315° West 450 518 28,000 2,460 Climbing Los Angeles Center
11:13PM 33.7258 -118.8331 316° Northwest 461 531 30,700 2,280 Climbing Los Angeles Center
11:14PM 33.8161 -118.9411 315° West 458 527 33,200 2,520 Climbing Los Angeles Center
11:15PM 33.9583 -119.1111 315° West 448 516 37,000 2,580 Climbing Los Angeles Center
11:17PM 34.0436 -119.2131 315° West 435 501 39,100 1,440 Climbing Los Angeles Center
11:18PM 34.1306 -119.3164 315° West 438 504 40,000 420 Climbing Los Angeles Center
11:19PM 34.2167 -119.4217 315° West 441 507 40,000  Level Los Angeles Center
11:20PM 34.3039 -119.5247 316° Northwest 438 504 40,000  Level Los Angeles Center
11:21PM 34.3894 -119.6289 315° West 437 503 40,000  Level Los Angeles Center
11:22PM 34.5094 -119.7731 315° West 435 501 40,000  Level Los Angeles Center
11:23PM 34.5969 -119.8706 317° Northwest 429 494 40,000  Level Los Angeles Center
11:24PM 34.6825 -119.9594 320° Northwest 432 497 40,000  Level Los Angeles Center
11:25PM 34.7711 -120.0567 318° Northwest 429 494 40,000  Level Los Angeles Center
11:26PM 34.8619 -120.1553 318° Northwest 433 498 40,000  Level Los Angeles Center
11:27PM 34.9683 -120.2744 317° Northwest 437 503 40,000 -780 Level Los Angeles Center
11:28PM 35.0575 -120.3725 318° Northwest 437 503 38,500 -1,980 Descending Los Angeles Center
11:29PM 35.1472 -120.4736 317° Northwest 442 509 36,000 -1,260 Descending Los Angeles Center
11:30PM 35.2400 -120.5747 318° Northwest 449 517 35,900 -60 Descending Los Angeles Center
11:31PM 35.3325 -120.6789 317° Northwest 454 522 35,900  Level Los Angeles Center
11:32PM 35.4186 -120.7650 321° Northwest 450 518 36,000  Climbing Oakland Center
11:33PM 35.5228 -120.8556 325° Northwest 456 525 35,900  Descending Oakland Center
11:34PM 35.6250 -120.9461 324° Northwest 451 519 36,000  Climbing Oakland Center
11:35PM 35.7275 -121.0367 324° Northwest 451 519 36,000  Level Oakland Center
11:36PM 35.8283 -121.1286 324° Northwest 449 517 36,000 -60 Level Oakland Center
11:37PM 35.9286 -121.2183 324° Northwest 445 512 35,900  Descending Oakland Center
11:38PM 36.0289 -121.3083 324° Northwest 444 511 36,000  Climbing Oakland Center
11:39PM 36.1278 -121.4008 323° Northwest 444 511 36,000  Level Oakland Center
11:40PM 36.2286 -121.4886 325° Northwest 443 510 36,000 -1,380 Level Oakland Center
11:41PM 36.3261 -121.5792 323° Northwest 438 504 33,200 -3,600 Descending Oakland Center
11:42PM 36.4458 -121.6911 323° Northwest 448 516 28,700 -3,840 Descending Oakland Center
11:43PM 36.5500 -121.7833 325° Northwest 437 503 25,600 -2,940 Descending Northern Cal TRACON
11:44PM 36.6333 -121.8667 321° Northwest 415 478 22,900 -2,760 Descending Northern Cal TRACON
11:45PM 36.7167 -121.9500 321° Northwest 396 456 20,100 -2,880 Descending Northern Cal TRACON
11:46PM 36.8167 -121.9833 345° North 380 437 17,200 -2,640 Descending Northern Cal TRACON
11:47PM 36.9197 -122.0092 349° North 367 422 14,700 -2,280 Descending Oakland Center
11:48PM 37.0103 -122.0339 348° North 332 382 12,500 -1,980 Descending Oakland Center
11:49PM 37.0908 -122.0539 349° North 296 341 10,700 -1,260 Descending Oakland Center
11:50PM 37.1608 -122.0731 348° North 260 299 10,000 -1,200 Descending Oakland Center
11:51PM 37.2386 -122.0931 348° North 239 275 8,300 -1,500 Descending Oakland Center
11:52PM 37.3017 -122.1103 348° North 232 267 7,000 -1,140 Descending Oakland Center
11:53PM 37.3631 -122.1264 348° North 226 260 6,000 -1,080 Descending Oakland Center
11:54PM 37.4258 -122.1428 348° North 228 262 4,800 -1,020 Descending Oakland Center
11:55PM 37.4856 -122.1589 348° North 224 258 4,000 -600 Descending Oakland Center
11:56PM 37.5353 -122.1933 331° Northwest 205 236 3,600 -900 Descending Oakland Center
11:57PM 37.5642 -122.2458 305° West 191 220 2,200 -1,260 Descending Oakland Center
11:58PM 37.5842 -122.2967 296° West 175 201 1,100 -840 Descending Oakland Center
11:59PM 37.5989 -122.3331 297° West 144 166 500 -540 Descending Oakland Center
12:00AM 37.6161 -122.3681 302° West 127 146 100 -420 Descending Oakland Center
12:02AM 37.6167 -122.3667 322° Northwest  Level FlightAware Approximate